Home PIREPS Pireps

Flight SLR8121

  • Submitted By: Vincent Fourni
  • Departure Airport: Bruxelles National (EBBR)
  • Arrival Airport: Palma de Mallorca / Son San Juan (LEPA)
  • Aircraft: B737-800 (OO-SLR)
  • Flight Time: 02.02
  • Date Submitted: 02/05/2017
  • Status: Accepted
Flight Details
Gross Revenue:
(136 load / € 0.00 per unit
€ 0.00
Fuel Cost:
(5446 fuel used @ 5.1 / unit)
€ 27,774.60

Additional Log Information:

View Log

Aircraft Used in flight is Boeing 737-800NGX JetairFly Airlines (TUI) Wingl
09:01 Brakes are On
09:07 Brakes are Released
09:09 Brakes are On
09:10 Brakes are Released
09:16 You Took off @ 184 Knots and Flaps at Position 3
Departure Weather
EBBR 020650Z VRB01KT CAVOK 09/06 Q1016 NOSIGrn
09:16 Landing Gear Up @ 173 Knots and 2260 Feet
09:20 Above FL100 you need to switch of the landing lights
10:51 Below 10000 feet you are not allowed to go over 250 knots
10:51 Slew Detected
10:51 Slew Stopped
10:59 Landing Gear Down @ 210 Knots and 2280 Feet
11:02 You Landed @ 131 Knots and with -400 Vertical Speed
Arrival Weather
LEPA 020830Z 23004KT 180V290 CAVOK 17/09 Q1021 NOSIGrn
11:02 Paused
11:05 Unpaused
11:05 Brakes are On
11:07 Brussels Bel-Track1.0.1.2

Route Map

Corporate About Us Our Team Vacancies Information Fleet Route Network Rules and Regulations Operations Flight Schedules Event Center Tours Partners IVAO Vatsim Acars dev FSCB

fb Users Online Belgium Bennie Peeters, South Africa Marc Toussaint,
3 Pilot(s) and 141 Guest(s) Online
CMS by phpVMS - Design by Crazycreatives.com - Copyright © 2020 - Brussels Airlines Virtual